Wilson Observed Data For Previous 48 Hours

Caption
Day and Hour Reservoir Elevation (behind dam)* Tailwater Elevation (below dam)* Average Hourly Discharge*
3/18/2019 1 AM CDT 506.21 422.65 181,645
3/18/2019 2 AM CDT 506.14 422.77 181,737
3/18/2019 3 AM CDT 506.18 422.66 181,643
3/18/2019 4 AM CDT 506.17 422.71 181,621
3/18/2019 5 AM CDT 506.14 422.63 181,572
3/18/2019 6 AM CDT 506.14 422.73 181,356
3/18/2019 7 AM CDT 506.16 422.80 180,490
3/18/2019 8 AM CDT 506.13 422.66 179,534
3/18/2019 9 AM CDT 506.15 422.55 180,515
3/18/2019 10 AM CDT 506.15 422.68 181,394
3/18/2019 11 AM CDT 506.18 422.98 181,508
3/18/2019 12 PM CDT 506.14 422.52 179,941
3/18/2019 1 PM CDT 506.13 422.46 177,577
3/18/2019 2 PM CDT 506.07 422.24 170,289
3/18/2019 3 PM CDT 506.09 421.82 163,338
3/18/2019 4 PM CDT 506.07 421.15 148,283
3/18/2019 5 PM CDT 506.16 421.24 146,685
3/18/2019 6 PM CDT 506.19 421.21 147,211
3/18/2019 7 PM CDT 506.26 421.16 147,463
3/18/2019 8 PM CDT 506.27 421.15 147,294
3/18/2019 9 PM CDT 506.34 421.73 147,405
3/18/2019 10 PM CDT 506.38 421.02 147,484
3/18/2019 11 PM CDT 506.42 421.17 147,365
3/19/2019 12 AM CDT 506.46 421.16 147,537
3/19/2019 1 AM CDT 506.50 421.23 147,660
3/19/2019 2 AM CDT 506.47 421.15 147,510
3/19/2019 3 AM CDT 506.57 421.19 147,641
3/19/2019 4 AM CDT 506.60 421.10 147,610
3/19/2019 5 AM CDT 506.61 421.19 147,572
3/19/2019 6 AM CDT 506.66 421.15 147,762
3/19/2019 7 AM CDT 506.72 421.21 147,876
3/19/2019 8 AM CDT 506.79 421.10 146,966
3/19/2019 9 AM CDT 506.81 421.10 145,828
3/19/2019 10 AM CDT 506.88 421.45 147,997
3/19/2019 11 AM CDT 506.91 421.18 148,156
3/19/2019 12 PM CDT 506.85 421.20 148,273
3/19/2019 1 PM CDT 506.84 421.16 148,135
3/19/2019 2 PM CDT 506.79 421.18 148,038
3/19/2019 3 PM CDT 506.73 421.16 148,047
3/19/2019 4 PM CDT 506.68 421.04 147,789
3/19/2019 5 PM CDT 506.64 421.09 147,415
3/19/2019 6 PM CDT 506.59 421.10 147,509
3/19/2019 7 PM CDT 506.54 421.10 147,787
3/19/2019 8 PM CDT 506.50 421.10 147,951
3/19/2019 9 PM CDT 506.45 421.06 147,921
3/19/2019 10 PM CDT 506.39 420.98 147,542
3/19/2019 11 PM CDT 506.34 421.05 147,482
3/20/2019 12 AM CDT 506.29 421.04 147,396
3/20/2019 1 AM CDT 506.26 421.10 147,281
3/20/2019 2 AM CDT 506.22 421.07 147,130
3/20/2019 3 AM CDT 506.17 421.02 147,078
3/20/2019 4 AM CDT 506.12 421.06 146,965
3/20/2019 5 AM CDT 506.08 421.06 146,510
3/20/2019 6 AM CDT 506.03 421.04 146,288
3/20/2019 7 AM CDT 505.98 420.99 146,357

Elevations are in feet above sea level. Discharges are in cubic feet per second and are reported at the end of the hour.